sensor_id;sensor_type;location;lat;lon;timestamp;P1;durP1;ratioP1;P2;durP2;ratioP2
7334;SDS011;3708;42.632;23.378;2022-09-06T00:02:32;7.73;;;3.57;;
7334;SDS011;3708;42.632;23.378;2022-09-06T00:05:00;6.57;;;3.80;;
7334;SDS011;3708;42.632;23.378;2022-09-06T00:07:28;6.47;;;4.10;;
7334;SDS011;3708;42.632;23.378;2022-09-06T00:09:55;7.13;;;4.10;;
7334;SDS011;3708;42.632;23.378;2022-09-06T00:12:22;6.17;;;4.57;;
7334;SDS011;3708;42.632;23.378;2022-09-06T00:14:50;6.80;;;4.03;;
7334;SDS011;3708;42.632;23.378;2022-09-06T00:17:17;5.40;;;4.07;;
7334;SDS011;3708;42.632;23.378;2022-09-06T00:19:44;4.03;;;3.63;;
7334;SDS011;3708;42.632;23.378;2022-09-06T00:22:11;7.37;;;4.13;;
7334;SDS011;3708;42.632;23.378;2022-09-06T00:24:39;4.20;;;3.80;;
7334;SDS011;3708;42.632;23.378;2022-09-06T00:27:06;7.17;;;4.33;;
7334;SDS011;3708;42.632;23.378;2022-09-06T00:29:34;8.37;;;4.20;;
7334;SDS011;3708;42.632;23.378;2022-09-06T00:32:01;4.67;;;3.87;;
7334;SDS011;3708;42.632;23.378;2022-09-06T00:34:28;6.53;;;3.50;;
7334;SDS011;3708;42.632;23.378;2022-09-06T00:36:55;4.07;;;3.67;;
7334;SDS011;3708;42.632;23.378;2022-09-06T00:39:22;8.60;;;4.70;;
7334;SDS011;3708;42.632;23.378;2022-09-06T00:41:50;5.37;;;3.83;;
7334;SDS011;3708;42.632;23.378;2022-09-06T00:44:18;5.43;;;3.70;;
7334;SDS011;3708;42.632;23.378;2022-09-06T00:46:45;4.23;;;3.37;;
7334;SDS011;3708;42.632;23.378;2022-09-06T00:49:15;6.53;;;3.47;;
7334;SDS011;3708;42.632;23.378;2022-09-06T00:51:49;3.57;;;3.23;;
7334;SDS011;3708;42.632;23.378;2022-09-06T00:54:17;3.87;;;3.53;;
7334;SDS011;3708;42.632;23.378;2022-09-06T00:56:47;7.03;;;3.83;;
7334;SDS011;3708;42.632;23.378;2022-09-06T00:59:17;4.33;;;3.60;;
7334;SDS011;3708;42.632;23.378;2022-09-06T01:01:56;4.87;;;3.90;;
7334;SDS011;3708;42.632;23.378;2022-09-06T01:04:24;4.33;;;3.50;;
7334;SDS011;3708;42.632;23.378;2022-09-06T01:07:02;7.20;;;3.80;;
7334;SDS011;3708;42.632;23.378;2022-09-06T01:09:46;5.73;;;3.90;;
7334;SDS011;3708;42.632;23.378;2022-09-06T01:12:28;4.37;;;3.93;;
7334;SDS011;3708;42.632;23.378;2022-09-06T01:15:10;7.27;;;3.90;;
7334;SDS011;3708;42.632;23.378;2022-09-06T01:17:49;4.80;;;3.77;;
7334;SDS011;3708;42.632;23.378;2022-09-06T01:20:30;5.77;;;3.77;;
7334;SDS011;3708;42.632;23.378;2022-09-06T01:23:13;5.80;;;3.30;;
7334;SDS011;3708;42.632;23.378;2022-09-06T01:26:02;6.87;;;3.70;;
7334;SDS011;3708;42.632;23.378;2022-09-06T01:28:40;3.63;;;3.33;;
7334;SDS011;3708;42.632;23.378;2022-09-06T01:31:17;5.20;;;4.00;;
7334;SDS011;3708;42.632;23.378;2022-09-06T01:33:53;12.67;;;3.83;;
7334;SDS011;3708;42.632;23.378;2022-09-06T01:36:38;4.93;;;3.13;;
7334;SDS011;3708;42.632;23.378;2022-09-06T01:39:08;4.57;;;3.77;;
7334;SDS011;3708;42.632;23.378;2022-09-06T01:41:43;6.27;;;3.63;;
7334;SDS011;3708;42.632;23.378;2022-09-06T01:44:13;4.30;;;3.83;;
7334;SDS011;3708;42.632;23.378;2022-09-06T01:46:47;3.60;;;3.30;;
7334;SDS011;3708;42.632;23.378;2022-09-06T01:49:22;5.50;;;3.63;;
7334;SDS011;3708;42.632;23.378;2022-09-06T01:52:01;5.80;;;4.03;;
7334;SDS011;3708;42.632;23.378;2022-09-06T01:54:40;4.83;;;4.33;;
7334;SDS011;3708;42.632;23.378;2022-09-06T01:57:21;4.23;;;3.43;;
7334;SDS011;3708;42.632;23.378;2022-09-06T02:00:02;3.97;;;3.57;;
7334;SDS011;3708;42.632;23.378;2022-09-06T02:02:35;7.37;;;3.70;;
7334;SDS011;3708;42.632;23.378;2022-09-06T02:05:15;11.17;;;4.03;;
7334;SDS011;3708;42.632;23.378;2022-09-06T02:07:51;5.33;;;3.43;;
7334;SDS011;3708;42.632;23.378;2022-09-06T02:10:24;5.83;;;3.70;;
7334;SDS011;3708;42.632;23.378;2022-09-06T02:12:56;3.83;;;3.43;;
7334;SDS011;3708;42.632;23.378;2022-09-06T02:15:49;6.53;;;3.97;;
7334;SDS011;3708;42.632;23.378;2022-09-06T02:18:30;3.90;;;3.33;;
7334;SDS011;3708;42.632;23.378;2022-09-06T02:21:01;6.50;;;3.90;;
7334;SDS011;3708;42.632;23.378;2022-09-06T02:23:30;3.93;;;3.50;;
7334;SDS011;3708;42.632;23.378;2022-09-06T02:26:01;3.97;;;3.03;;
7334;SDS011;3708;42.632;23.378;2022-09-06T02:28:35;8.00;;;4.13;;
7334;SDS011;3708;42.632;23.378;2022-09-06T02:31:10;6.80;;;3.27;;
7334;SDS011;3708;42.632;23.378;2022-09-06T02:34:07;5.00;;;3.50;;
7334;SDS011;3708;42.632;23.378;2022-09-06T02:36:39;3.90;;;3.50;;
7334;SDS011;3708;42.632;23.378;2022-09-06T02:39:06;3.80;;;3.40;;
7334;SDS011;3708;42.632;23.378;2022-09-06T02:41:35;6.37;;;3.53;;
7334;SDS011;3708;42.632;23.378;2022-09-06T02:44:06;4.30;;;3.60;;
7334;SDS011;3708;42.632;23.378;2022-09-06T02:46:35;4.07;;;3.50;;
7334;SDS011;3708;42.632;23.378;2022-09-06T02:49:12;4.40;;;3.90;;
7334;SDS011;3708;42.632;23.378;2022-09-06T02:51:43;4.10;;;3.67;;
7334;SDS011;3708;42.632;23.378;2022-09-06T02:54:17;5.60;;;3.60;;
7334;SDS011;3708;42.632;23.378;2022-09-06T02:56:46;8.40;;;4.70;;
7334;SDS011;3708;42.632;23.378;2022-09-06T02:59:18;6.13;;;3.53;;
7334;SDS011;3708;42.632;23.378;2022-09-06T03:01:51;5.77;;;3.70;;
7334;SDS011;3708;42.632;23.378;2022-09-06T03:04:32;5.03;;;3.97;;
7334;SDS011;3708;42.632;23.378;2022-09-06T03:06:59;8.07;;;4.60;;
7334;SDS011;3708;42.632;23.378;2022-09-06T03:09:30;4.37;;;3.83;;
7334;SDS011;3708;42.632;23.378;2022-09-06T03:12:01;6.43;;;4.47;;
7334;SDS011;3708;42.632;23.378;2022-09-06T03:14:31;5.40;;;4.13;;
7334;SDS011;3708;42.632;23.378;2022-09-06T03:17:04;11.77;;;3.80;;
7334;SDS011;3708;42.632;23.378;2022-09-06T03:19:33;4.60;;;4.00;;
7334;SDS011;3708;42.632;23.378;2022-09-06T03:22:00;6.17;;;4.50;;
7334;SDS011;3708;42.632;23.378;2022-09-06T03:24:30;5.70;;;4.83;;
7334;SDS011;3708;42.632;23.378;2022-09-06T03:27:02;7.90;;;4.30;;
7334;SDS011;3708;42.632;23.378;2022-09-06T03:29:30;7.40;;;5.00;;
7334;SDS011;3708;42.632;23.378;2022-09-06T03:31:57;7.93;;;5.07;;
7334;SDS011;3708;42.632;23.378;2022-09-06T03:34:25;11.13;;;5.20;;
7334;SDS011;3708;42.632;23.378;2022-09-06T03:36:52;6.80;;;4.80;;
7334;SDS011;3708;42.632;23.378;2022-09-06T03:39:20;6.53;;;5.27;;
7334;SDS011;3708;42.632;23.378;2022-09-06T03:41:48;4.90;;;4.40;;
7334;SDS011;3708;42.632;23.378;2022-09-06T03:44:15;7.40;;;4.97;;
7334;SDS011;3708;42.632;23.378;2022-09-06T03:46:42;8.13;;;5.10;;
7334;SDS011;3708;42.632;23.378;2022-09-06T03:49:10;5.60;;;4.57;;
7334;SDS011;3708;42.632;23.378;2022-09-06T03:51:38;7.07;;;4.50;;
7334;SDS011;3708;42.632;23.378;2022-09-06T03:54:24;5.43;;;4.90;;
7334;SDS011;3708;42.632;23.378;2022-09-06T03:56:52;9.10;;;5.57;;
7334;SDS011;3708;42.632;23.378;2022-09-06T03:59:39;7.23;;;5.13;;
7334;SDS011;3708;42.632;23.378;2022-09-06T04:02:11;6.30;;;5.00;;
7334;SDS011;3708;42.632;23.378;2022-09-06T04:04:39;8.60;;;5.40;;
7334;SDS011;3708;42.632;23.378;2022-09-06T04:07:08;5.97;;;4.57;;
7334;SDS011;3708;42.632;23.378;2022-09-06T04:09:37;8.73;;;4.93;;
7334;SDS011;3708;42.632;23.378;2022-09-06T04:12:07;7.13;;;4.63;;
7334;SDS011;3708;42.632;23.378;2022-09-06T04:14:34;6.10;;;5.00;;
7334;SDS011;3708;42.632;23.378;2022-09-06T04:17:01;6.10;;;4.03;;
7334;SDS011;3708;42.632;23.378;2022-09-06T04:19:30;6.07;;;5.47;;
7334;SDS011;3708;42.632;23.378;2022-09-06T04:22:01;5.80;;;5.13;;
7334;SDS011;3708;42.632;23.378;2022-09-06T04:24:39;6.70;;;5.17;;
7334;SDS011;3708;42.632;23.378;2022-09-06T04:27:10;6.17;;;5.47;;
7334;SDS011;3708;42.632;23.378;2022-09-06T04:29:37;6.50;;;5.43;;
7334;SDS011;3708;42.632;23.378;2022-09-06T04:32:04;6.13;;;5.30;;
7334;SDS011;3708;42.632;23.378;2022-09-06T04:34:31;11.83;;;5.97;;
7334;SDS011;3708;42.632;23.378;2022-09-06T04:36:58;6.33;;;5.70;;
7334;SDS011;3708;42.632;23.378;2022-09-06T04:39:25;8.33;;;6.03;;
7334;SDS011;3708;42.632;23.378;2022-09-06T04:41:53;8.20;;;6.23;;
7334;SDS011;3708;42.632;23.378;2022-09-06T04:44:20;9.27;;;5.70;;
7334;SDS011;3708;42.632;23.378;2022-09-06T04:46:49;6.53;;;5.70;;
7334;SDS011;3708;42.632;23.378;2022-09-06T04:49:19;7.73;;;5.50;;
7334;SDS011;3708;42.632;23.378;2022-09-06T04:51:47;12.23;;;5.57;;
7334;SDS011;3708;42.632;23.378;2022-09-06T04:54:14;9.50;;;6.03;;
7334;SDS011;3708;42.632;23.378;2022-09-06T04:56:44;7.20;;;6.00;;
7334;SDS011;3708;42.632;23.378;2022-09-06T05:02:04;8.73;;;6.60;;
7334;SDS011;3708;42.632;23.378;2022-09-06T05:04:31;11.03;;;6.60;;
7334;SDS011;3708;42.632;23.378;2022-09-06T05:06:58;13.93;;;7.50;;
7334;SDS011;3708;42.632;23.378;2022-09-06T05:09:29;11.70;;;7.40;;
7334;SDS011;3708;42.632;23.378;2022-09-06T05:11:56;10.10;;;7.37;;
7334;SDS011;3708;42.632;23.378;2022-09-06T05:14:24;8.07;;;6.73;;
7334;SDS011;3708;42.632;23.378;2022-09-06T05:16:54;9.87;;;6.87;;
7334;SDS011;3708;42.632;23.378;2022-09-06T05:19:21;8.90;;;6.93;;
7334;SDS011;3708;42.632;23.378;2022-09-06T05:21:49;9.73;;;7.00;;
7334;SDS011;3708;42.632;23.378;2022-09-06T05:24:16;10.00;;;7.17;;
7334;SDS011;3708;42.632;23.378;2022-09-06T05:26:43;12.10;;;6.67;;
7334;SDS011;3708;42.632;23.378;2022-09-06T05:29:10;12.47;;;6.80;;
7334;SDS011;3708;42.632;23.378;2022-09-06T05:31:37;8.13;;;7.20;;
7334;SDS011;3708;42.632;23.378;2022-09-06T05:34:05;9.53;;;7.33;;
7334;SDS011;3708;42.632;23.378;2022-09-06T05:36:32;8.67;;;7.77;;
7334;SDS011;3708;42.632;23.378;2022-09-06T05:38:59;10.23;;;7.43;;
7334;SDS011;3708;42.632;23.378;2022-09-06T05:41:29;9.50;;;7.37;;
7334;SDS011;3708;42.632;23.378;2022-09-06T05:43:57;10.43;;;7.80;;
7334;SDS011;3708;42.632;23.378;2022-09-06T05:46:25;11.30;;;7.43;;
7334;SDS011;3708;42.632;23.378;2022-09-06T05:48:52;8.53;;;7.37;;
7334;SDS011;3708;42.632;23.378;2022-09-06T05:51:23;13.30;;;7.43;;
7334;SDS011;3708;42.632;23.378;2022-09-06T05:53:50;10.33;;;6.33;;
7334;SDS011;3708;42.632;23.378;2022-09-06T05:56:17;8.23;;;6.97;;
7334;SDS011;3708;42.632;23.378;2022-09-06T05:58:44;10.20;;;6.70;;
7334;SDS011;3708;42.632;23.378;2022-09-06T06:01:15;8.07;;;6.70;;
7334;SDS011;3708;42.632;23.378;2022-09-06T06:03:48;14.80;;;7.90;;
7334;SDS011;3708;42.632;23.378;2022-09-06T06:06:16;8.80;;;7.10;;
7334;SDS011;3708;42.632;23.378;2022-09-06T06:08:45;12.17;;;8.00;;
7334;SDS011;3708;42.632;23.378;2022-09-06T06:11:13;8.93;;;6.93;;
7334;SDS011;3708;42.632;23.378;2022-09-06T06:13:40;7.83;;;7.03;;
7334;SDS011;3708;42.632;23.378;2022-09-06T06:16:08;14.83;;;7.37;;
7334;SDS011;3708;42.632;23.378;2022-09-06T06:18:36;12.20;;;7.47;;
7334;SDS011;3708;42.632;23.378;2022-09-06T06:21:07;11.80;;;7.37;;
7334;SDS011;3708;42.632;23.378;2022-09-06T06:23:35;10.63;;;7.23;;
7334;SDS011;3708;42.632;23.378;2022-09-06T06:26:03;10.47;;;7.30;;
7334;SDS011;3708;42.632;23.378;2022-09-06T06:28:32;8.47;;;7.53;;
7334;SDS011;3708;42.632;23.378;2022-09-06T06:30:59;9.37;;;7.47;;
7334;SDS011;3708;42.632;23.378;2022-09-06T06:33:26;10.03;;;8.33;;
7334;SDS011;3708;42.632;23.378;2022-09-06T06:35:56;10.13;;;7.60;;
7334;SDS011;3708;42.632;23.378;2022-09-06T06:38:28;13.27;;;8.37;;
7334;SDS011;3708;42.632;23.378;2022-09-06T06:40:56;10.57;;;8.30;;
7334;SDS011;3708;42.632;23.378;2022-09-06T06:43:24;9.30;;;7.60;;
7334;SDS011;3708;42.632;23.378;2022-09-06T06:45:52;10.43;;;6.90;;
7334;SDS011;3708;42.632;23.378;2022-09-06T06:48:19;11.53;;;7.73;;
7334;SDS011;3708;42.632;23.378;2022-09-06T06:50:47;9.80;;;7.53;;
7334;SDS011;3708;42.632;23.378;2022-09-06T06:53:14;11.43;;;7.43;;
7334;SDS011;3708;42.632;23.378;2022-09-06T06:55:44;8.63;;;7.17;;
7334;SDS011;3708;42.632;23.378;2022-09-06T06:58:12;8.87;;;6.97;;
7334;SDS011;3708;42.632;23.378;2022-09-06T07:00:40;9.40;;;6.97;;
7334;SDS011;3708;42.632;23.378;2022-09-06T07:03:07;7.83;;;6.03;;
7334;SDS011;3708;42.632;23.378;2022-09-06T07:05:34;10.27;;;6.60;;
7334;SDS011;3708;42.632;23.378;2022-09-06T07:08:08;13.10;;;6.53;;
7334;SDS011;3708;42.632;23.378;2022-09-06T07:10:36;12.67;;;6.87;;
7334;SDS011;3708;42.632;23.378;2022-09-06T07:13:05;8.50;;;5.50;;
7334;SDS011;3708;42.632;23.378;2022-09-06T07:15:32;7.80;;;5.60;;
7334;SDS011;3708;42.632;23.378;2022-09-06T07:18:01;8.70;;;5.93;;
7334;SDS011;3708;42.632;23.378;2022-09-06T07:20:28;6.13;;;5.43;;
7334;SDS011;3708;42.632;23.378;2022-09-06T07:22:58;10.35;;;6.13;;
7334;SDS011;3708;42.632;23.378;2022-09-06T07:25:26;7.70;;;6.30;;
7334;SDS011;3708;42.632;23.378;2022-09-06T07:27:56;6.77;;;5.63;;
7334;SDS011;3708;42.632;23.378;2022-09-06T07:30:24;6.03;;;5.30;;
7334;SDS011;3708;42.632;23.378;2022-09-06T07:32:50;7.82;;;5.35;;
7334;SDS011;3708;42.632;23.378;2022-09-06T07:35:19;9.07;;;5.20;;
7334;SDS011;3708;42.632;23.378;2022-09-06T07:37:52;6.43;;;5.00;;
7334;SDS011;3708;42.632;23.378;2022-09-06T07:40:20;7.70;;;5.10;;
7334;SDS011;3708;42.632;23.378;2022-09-06T07:42:47;9.77;;;5.45;;
7334;SDS011;3708;42.632;23.378;2022-09-06T07:45:14;8.10;;;4.82;;
7334;SDS011;3708;42.632;23.378;2022-09-06T07:47:41;8.48;;;5.13;;
7334;SDS011;3708;42.632;23.378;2022-09-06T07:50:08;5.90;;;4.90;;
7334;SDS011;3708;42.632;23.378;2022-09-06T07:52:38;7.38;;;5.00;;
7334;SDS011;3708;42.632;23.378;2022-09-06T07:55:05;6.68;;;5.05;;
7334;SDS011;3708;42.632;23.378;2022-09-06T07:57:35;6.35;;;5.25;;
7334;SDS011;3708;42.632;23.378;2022-09-06T08:00:04;5.45;;;4.88;;
7334;SDS011;3708;42.632;23.378;2022-09-06T08:02:32;14.70;;;5.20;;
7334;SDS011;3708;42.632;23.378;2022-09-06T08:04:58;7.97;;;4.63;;
7334;SDS011;3708;42.632;23.378;2022-09-06T08:07:25;8.38;;;5.35;;
7334;SDS011;3708;42.632;23.378;2022-09-06T08:09:53;7.10;;;4.88;;
7334;SDS011;3708;42.632;23.378;2022-09-06T08:12:20;5.55;;;4.68;;
7334;SDS011;3708;42.632;23.378;2022-09-06T08:14:48;7.15;;;4.80;;
7334;SDS011;3708;42.632;23.378;2022-09-06T08:17:15;10.48;;;5.20;;
7334;SDS011;3708;42.632;23.378;2022-09-06T08:19:42;8.63;;;4.57;;
7334;SDS011;3708;42.632;23.378;2022-09-06T08:22:09;10.75;;;5.22;;
7334;SDS011;3708;42.632;23.378;2022-09-06T08:24:36;11.18;;;5.53;;
7334;SDS011;3708;42.632;23.378;2022-09-06T08:27:04;8.68;;;4.47;;
7334;SDS011;3708;42.632;23.378;2022-09-06T08:29:33;9.88;;;4.82;;
7334;SDS011;3708;42.632;23.378;2022-09-06T08:31:59;7.65;;;5.00;;
7334;SDS011;3708;42.632;23.378;2022-09-06T08:34:26;10.13;;;4.45;;
7334;SDS011;3708;42.632;23.378;2022-09-06T08:36:53;5.95;;;4.43;;
7334;SDS011;3708;42.632;23.378;2022-09-06T08:39:20;9.90;;;4.40;;
7334;SDS011;3708;42.632;23.378;2022-09-06T08:41:48;7.45;;;4.30;;
7334;SDS011;3708;42.632;23.378;2022-09-06T08:44:22;8.75;;;4.40;;
7334;SDS011;3708;42.632;23.378;2022-09-06T08:46:53;9.60;;;4.28;;
7334;SDS011;3708;42.632;23.378;2022-09-06T08:49:23;5.30;;;4.57;;
7334;SDS011;3708;42.632;23.378;2022-09-06T08:51:59;5.97;;;4.43;;
7334;SDS011;3708;42.632;23.378;2022-09-06T08:54:40;12.65;;;5.28;;
7334;SDS011;3708;42.632;23.378;2022-09-06T08:57:14;8.57;;;4.90;;
7334;SDS011;3708;42.632;23.378;2022-09-06T09:00:00;9.27;;;4.47;;
7334;SDS011;3708;42.632;23.378;2022-09-06T09:02:40;7.13;;;4.65;;
7334;SDS011;3708;42.632;23.378;2022-09-06T09:05:12;8.38;;;4.03;;
7334;SDS011;3708;42.632;23.378;2022-09-06T09:07:45;6.28;;;4.45;;
7334;SDS011;3708;42.632;23.378;2022-09-06T09:10:20;5.22;;;4.50;;
7334;SDS011;3708;42.632;23.378;2022-09-06T09:12:52;9.23;;;4.95;;
7334;SDS011;3708;42.632;23.378;2022-09-06T09:15:21;5.97;;;3.83;;
7334;SDS011;3708;42.632;23.378;2022-09-06T09:17:48;7.43;;;4.40;;
7334;SDS011;3708;42.632;23.378;2022-09-06T09:20:17;6.40;;;4.63;;
7334;SDS011;3708;42.632;23.378;2022-09-06T09:22:44;3.78;;;3.33;;
7334;SDS011;3708;42.632;23.378;2022-09-06T09:25:17;5.63;;;4.07;;
7334;SDS011;3708;42.632;23.378;2022-09-06T09:27:51;5.82;;;3.80;;
7334;SDS011;3708;42.632;23.378;2022-09-06T09:30:23;5.40;;;3.83;;
7334;SDS011;3708;42.632;23.378;2022-09-06T09:32:51;4.78;;;4.22;;
7334;SDS011;3708;42.632;23.378;2022-09-06T09:35:19;5.38;;;3.78;;
7334;SDS011;3708;42.632;23.378;2022-09-06T09:37:55;7.72;;;4.68;;
7334;SDS011;3708;42.632;23.378;2022-09-06T09:40:28;4.88;;;4.38;;
7334;SDS011;3708;42.632;23.378;2022-09-06T09:43:09;5.40;;;4.28;;
7334;SDS011;3708;42.632;23.378;2022-09-06T09:45:41;5.35;;;4.85;;
7334;SDS011;3708;42.632;23.378;2022-09-06T09:48:16;5.28;;;4.13;;
7334;SDS011;3708;42.632;23.378;2022-09-06T09:50:45;4.50;;;3.83;;
7334;SDS011;3708;42.632;23.378;2022-09-06T09:53:13;13.70;;;4.25;;
7334;SDS011;3708;42.632;23.378;2022-09-06T09:55:42;4.68;;;4.00;;
7334;SDS011;3708;42.632;23.378;2022-09-06T09:58:19;9.57;;;4.05;;
7334;SDS011;3708;42.632;23.378;2022-09-06T10:01:09;8.18;;;4.00;;
7334;SDS011;3708;42.632;23.378;2022-09-06T10:03:37;5.95;;;3.78;;
7334;SDS011;3708;42.632;23.378;2022-09-06T10:06:04;5.95;;;3.78;;
7334;SDS011;3708;42.632;23.378;2022-09-06T10:08:38;4.22;;;3.55;;
7334;SDS011;3708;42.632;23.378;2022-09-06T10:11:10;4.00;;;3.60;;
7334;SDS011;3708;42.632;23.378;2022-09-06T10:13:38;5.10;;;3.47;;
7334;SDS011;3708;42.632;23.378;2022-09-06T10:16:07;4.30;;;3.15;;
7334;SDS011;3708;42.632;23.378;2022-09-06T10:18:37;5.47;;;3.10;;
7334;SDS011;3708;42.632;23.378;2022-09-06T10:21:06;4.15;;;3.30;;
7334;SDS011;3708;42.632;23.378;2022-09-06T10:23:48;3.42;;;2.88;;
7334;SDS011;3708;42.632;23.378;2022-09-06T10:26:31;4.35;;;3.15;;
7334;SDS011;3708;42.632;23.378;2022-09-06T10:29:06;5.00;;;2.80;;
7334;SDS011;3708;42.632;23.378;2022-09-06T10:34:48;2.92;;;2.50;;
7334;SDS011;3708;42.632;23.378;2022-09-06T10:37:41;5.53;;;3.10;;
7334;SDS011;3708;42.632;23.378;2022-09-06T10:40:16;3.80;;;2.78;;
7334;SDS011;3708;42.632;23.378;2022-09-06T10:42:53;4.70;;;3.45;;
7334;SDS011;3708;42.632;23.378;2022-09-06T10:45:26;5.25;;;3.90;;
7334;SDS011;3708;42.632;23.378;2022-09-06T10:48:06;4.47;;;3.40;;
7334;SDS011;3708;42.632;23.378;2022-09-06T10:50:40;5.07;;;3.22;;
7334;SDS011;3708;42.632;23.378;2022-09-06T10:53:12;3.63;;;3.15;;
7334;SDS011;3708;42.632;23.378;2022-09-06T10:55:48;5.68;;;3.25;;
7334;SDS011;3708;42.632;23.378;2022-09-06T10:58:21;5.90;;;3.28;;
7334;SDS011;3708;42.632;23.378;2022-09-06T11:00:52;3.10;;;2.80;;
7334;SDS011;3708;42.632;23.378;2022-09-06T11:03:24;9.30;;;2.85;;
7334;SDS011;3708;42.632;23.378;2022-09-06T11:05:55;7.20;;;2.85;;
7334;SDS011;3708;42.632;23.378;2022-09-06T11:08:29;4.50;;;3.40;;
7334;SDS011;3708;42.632;23.378;2022-09-06T11:11:05;3.35;;;3.05;;
7334;SDS011;3708;42.632;23.378;2022-09-06T11:13:36;4.32;;;3.17;;
7334;SDS011;3708;42.632;23.378;2022-09-06T11:16:05;3.33;;;3.03;;
7334;SDS011;3708;42.632;23.378;2022-09-06T11:18:38;3.88;;;3.20;;
7334;SDS011;3708;42.632;23.378;2022-09-06T11:21:26;3.45;;;2.75;;
7334;SDS011;3708;42.632;23.378;2022-09-06T11:24:13;4.13;;;2.50;;
7334;SDS011;3708;42.632;23.378;2022-09-06T11:26:52;3.88;;;2.85;;
7334;SDS011;3708;42.632;23.378;2022-09-06T11:29:26;2.15;;;1.95;;
7334;SDS011;3708;42.632;23.378;2022-09-06T11:31:56;2.60;;;2.13;;
7334;SDS011;3708;42.632;23.378;2022-09-06T11:34:27;4.57;;;2.53;;
7334;SDS011;3708;42.632;23.378;2022-09-06T11:36:59;2.47;;;2.28;;
7334;SDS011;3708;42.632;23.378;2022-09-06T11:39:28;3.08;;;2.40;;
7334;SDS011;3708;42.632;23.378;2022-09-06T11:41:58;2.63;;;2.20;;
7334;SDS011;3708;42.632;23.378;2022-09-06T11:53:15;2.42;;;2.13;;
7334;SDS011;3708;42.632;23.378;2022-09-06T11:55:43;2.75;;;2.40;;
7334;SDS011;3708;42.632;23.378;2022-09-06T11:58:19;2.60;;;2.35;;
7334;SDS011;3708;42.632;23.378;2022-09-06T12:03:59;2.72;;;2.22;;
7334;SDS011;3708;42.632;23.378;2022-09-06T12:06:27;5.47;;;2.17;;
7334;SDS011;3708;42.632;23.378;2022-09-06T12:08:57;3.10;;;2.30;;
7334;SDS011;3708;42.632;23.378;2022-09-06T12:11:26;2.47;;;2.00;;
7334;SDS011;3708;42.632;23.378;2022-09-06T12:13:59;2.55;;;2.15;;
7334;SDS011;3708;42.632;23.378;2022-09-06T12:19:40;3.33;;;2.22;;
7334;SDS011;3708;42.632;23.378;2022-09-06T12:28:37;4.00;;;2.08;;
7334;SDS011;3708;42.632;23.378;2022-09-06T12:34:08;3.00;;;2.20;;
7334;SDS011;3708;42.632;23.378;2022-09-06T12:36:46;2.03;;;1.83;;
7334;SDS011;3708;42.632;23.378;2022-09-06T12:39:16;3.30;;;2.25;;
7334;SDS011;3708;42.632;23.378;2022-09-06T12:41:47;7.13;;;2.20;;
7334;SDS011;3708;42.632;23.378;2022-09-06T12:44:16;2.75;;;2.20;;
7334;SDS011;3708;42.632;23.378;2022-09-06T12:46:48;4.47;;;2.72;;
7334;SDS011;3708;42.632;23.378;2022-09-06T12:49:17;4.47;;;2.20;;
7334;SDS011;3708;42.632;23.378;2022-09-06T12:51:48;3.30;;;2.17;;
7334;SDS011;3708;42.632;23.378;2022-09-06T12:54:19;3.63;;;2.15;;
7334;SDS011;3708;42.632;23.378;2022-09-06T12:56:50;3.40;;;2.08;;
7334;SDS011;3708;42.632;23.378;2022-09-06T12:59:19;2.70;;;2.28;;
7334;SDS011;3708;42.632;23.378;2022-09-06T13:01:50;2.40;;;2.20;;
7334;SDS011;3708;42.632;23.378;2022-09-06T13:04:26;3.35;;;2.53;;
7334;SDS011;3708;42.632;23.378;2022-09-06T13:06:59;5.45;;;2.70;;
7334;SDS011;3708;42.632;23.378;2022-09-06T13:09:28;2.75;;;2.08;;
7334;SDS011;3708;42.632;23.378;2022-09-06T13:12:01;2.83;;;2.03;;
7334;SDS011;3708;42.632;23.378;2022-09-06T13:14:31;2.92;;;2.08;;
7334;SDS011;3708;42.632;23.378;2022-09-06T13:17:00;3.72;;;2.65;;
7334;SDS011;3708;42.632;23.378;2022-09-06T13:19:28;3.33;;;1.83;;
7334;SDS011;3708;42.632;23.378;2022-09-06T13:21:57;2.97;;;2.33;;
7334;SDS011;3708;42.632;23.378;2022-09-06T13:24:26;4.03;;;2.03;;
7334;SDS011;3708;42.632;23.378;2022-09-06T13:27:25;2.67;;;1.98;;
7334;SDS011;3708;42.632;23.378;2022-09-06T13:29:58;5.85;;;2.42;;
7334;SDS011;3708;42.632;23.378;2022-09-06T13:32:27;2.58;;;1.95;;
7334;SDS011;3708;42.632;23.378;2022-09-06T13:34:56;2.75;;;1.58;;
7334;SDS011;3708;42.632;23.378;2022-09-06T13:37:25;3.50;;;1.98;;
7334;SDS011;3708;42.632;23.378;2022-09-06T13:39:54;3.15;;;2.35;;
7334;SDS011;3708;42.632;23.378;2022-09-06T13:42:25;2.85;;;2.00;;
7334;SDS011;3708;42.632;23.378;2022-09-06T13:44:56;6.00;;;2.80;;
7334;SDS011;3708;42.632;23.378;2022-09-06T13:47:25;5.55;;;1.98;;
7334;SDS011;3708;42.632;23.378;2022-09-06T13:49:56;3.38;;;2.58;;
7334;SDS011;3708;42.632;23.378;2022-09-06T13:52:23;3.22;;;2.22;;
7334;SDS011;3708;42.632;23.378;2022-09-06T13:54:50;3.67;;;1.75;;
7334;SDS011;3708;42.632;23.378;2022-09-06T13:57:17;2.83;;;2.40;;
7334;SDS011;3708;42.632;23.378;2022-09-06T13:59:45;3.00;;;2.47;;
7334;SDS011;3708;42.632;23.378;2022-09-06T14:02:12;6.30;;;1.70;;
7334;SDS011;3708;42.632;23.378;2022-09-06T14:04:41;2.10;;;1.90;;
7334;SDS011;3708;42.632;23.378;2022-09-06T14:07:08;2.67;;;1.75;;
7334;SDS011;3708;42.632;23.378;2022-09-06T14:09:36;2.92;;;2.10;;
7334;SDS011;3708;42.632;23.378;2022-09-06T14:12:03;5.15;;;2.20;;
7334;SDS011;3708;42.632;23.378;2022-09-06T14:14:31;4.25;;;2.17;;
7334;SDS011;3708;42.632;23.378;2022-09-06T14:16:59;4.22;;;1.88;;
7334;SDS011;3708;42.632;23.378;2022-09-06T14:19:26;3.25;;;2.10;;
7334;SDS011;3708;42.632;23.378;2022-09-06T14:21:54;4.47;;;1.88;;
7334;SDS011;3708;42.632;23.378;2022-09-06T14:24:21;314.65;;;24.15;;
7334;SDS011;3708;42.632;23.378;2022-09-06T14:26:48;12.02;;;2.42;;
7334;SDS011;3708;42.632;23.378;2022-09-06T14:29:15;10.82;;;2.20;;
7334;SDS011;3708;42.632;23.378;2022-09-06T14:31:42;35.67;;;6.55;;
7334;SDS011;3708;42.632;23.378;2022-09-06T14:34:10;30.70;;;5.00;;
7334;SDS011;3708;42.632;23.378;2022-09-06T14:36:37;7.60;;;2.40;;
7334;SDS011;3708;42.632;23.378;2022-09-06T14:39:04;2.33;;;1.80;;
7334;SDS011;3708;42.632;23.378;2022-09-06T14:41:31;4.05;;;1.60;;
7334;SDS011;3708;42.632;23.378;2022-09-06T14:43:58;3.13;;;2.17;;
7334;SDS011;3708;42.632;23.378;2022-09-06T14:46:25;2.78;;;1.88;;
7334;SDS011;3708;42.632;23.378;2022-09-06T14:48:57;3.22;;;2.28;;
7334;SDS011;3708;42.632;23.378;2022-09-06T14:51:26;4.22;;;2.15;;
7334;SDS011;3708;42.632;23.378;2022-09-06T14:53:55;3.50;;;2.17;;
7334;SDS011;3708;42.632;23.378;2022-09-06T14:56:25;3.85;;;2.15;;
7334;SDS011;3708;42.632;23.378;2022-09-06T14:58:53;2.40;;;1.92;;
7334;SDS011;3708;42.632;23.378;2022-09-06T15:01:22;7.03;;;2.40;;
7334;SDS011;3708;42.632;23.378;2022-09-06T15:03:51;6.38;;;2.20;;
7334;SDS011;3708;42.632;23.378;2022-09-06T15:06:20;4.75;;;2.30;;
7334;SDS011;3708;42.632;23.378;2022-09-06T15:08:52;4.63;;;2.30;;
7334;SDS011;3708;42.632;23.378;2022-09-06T15:11:29;4.68;;;2.70;;
7334;SDS011;3708;42.632;23.378;2022-09-06T15:13:59;18.70;;;3.45;;
7334;SDS011;3708;42.632;23.378;2022-09-06T15:16:26;9.57;;;2.30;;
7334;SDS011;3708;42.632;23.378;2022-09-06T15:18:54;2.58;;;1.90;;
7334;SDS011;3708;42.632;23.378;2022-09-06T15:21:21;3.63;;;2.58;;
7334;SDS011;3708;42.632;23.378;2022-09-06T15:23:51;4.78;;;2.15;;
7334;SDS011;3708;42.632;23.378;2022-09-06T15:26:18;5.65;;;2.67;;
7334;SDS011;3708;42.632;23.378;2022-09-06T15:28:46;5.22;;;2.55;;
7334;SDS011;3708;42.632;23.378;2022-09-06T15:31:13;6.18;;;2.92;;
7334;SDS011;3708;42.632;23.378;2022-09-06T15:33:40;4.72;;;2.47;;
7334;SDS011;3708;42.632;23.378;2022-09-06T15:36:08;6.93;;;3.10;;
7334;SDS011;3708;42.632;23.378;2022-09-06T15:38:38;3.53;;;2.67;;
7334;SDS011;3708;42.632;23.378;2022-09-06T15:41:08;4.32;;;3.33;;
7334;SDS011;3708;42.632;23.378;2022-09-06T15:43:37;5.28;;;2.45;;
7334;SDS011;3708;42.632;23.378;2022-09-06T15:46:06;14.00;;;3.63;;
7334;SDS011;3708;42.632;23.378;2022-09-06T15:48:40;5.78;;;3.30;;
7334;SDS011;3708;42.632;23.378;2022-09-06T15:51:08;5.00;;;2.50;;
7334;SDS011;3708;42.632;23.378;2022-09-06T15:53:35;7.75;;;2.97;;